createdAt,value
2023-03-11T00:01:09.704Z,18.57
2023-03-11T00:03:36.721Z,18.93
2023-03-11T00:06:04.148Z,21.00
2023-03-11T00:08:31.081Z,23.17
2023-03-11T00:11:00.478Z,21.87
2023-03-11T00:13:29.175Z,19.47
2023-03-11T00:15:56.932Z,25.70
2023-03-11T00:18:27.154Z,20.57
2023-03-11T00:20:55.934Z,20.47
2023-03-11T00:23:24.020Z,24.43
2023-03-11T00:25:51.432Z,19.40
2023-03-11T00:28:18.672Z,21.60
2023-03-11T00:30:47.140Z,23.93
2023-03-11T00:33:15.713Z,27.83
2023-03-11T00:35:43.510Z,20.53
2023-03-11T00:38:15.311Z,21.20
2023-03-11T00:40:43.516Z,24.87
2023-03-11T00:43:10.773Z,20.83
2023-03-11T00:45:37.767Z,21.80
2023-03-11T00:48:05.486Z,20.73
2023-03-11T00:50:35.118Z,20.97
2023-03-11T00:53:03.320Z,23.57
2023-03-11T00:55:32.606Z,17.43
2023-03-11T00:58:02.701Z,19.13
2023-03-11T01:00:30.518Z,21.77
2023-03-11T01:02:58.120Z,20.30
2023-03-11T01:05:29.179Z,18.93
2023-03-11T01:07:56.380Z,18.03
2023-03-11T01:10:23.387Z,19.07
2023-03-11T01:12:50.277Z,17.87
2023-03-11T01:15:29.156Z,16.83
2023-03-11T01:17:56.421Z,16.57
2023-03-11T01:20:23.403Z,16.73
2023-03-11T01:22:51.403Z,19.93
2023-03-11T01:25:22.674Z,16.33
2023-03-11T01:27:50.296Z,16.57
2023-03-11T01:30:20.931Z,16.80
2023-03-11T01:32:48.034Z,16.10
2023-03-11T01:35:16.938Z,14.10
2023-03-11T01:37:44.941Z,14.20
2023-03-11T01:40:35.974Z,14.47
2023-03-11T01:43:04.468Z,12.00
2023-03-11T01:45:39.439Z,13.00
2023-03-11T01:48:07.939Z,15.70
2023-03-11T01:50:38.384Z,10.90
2023-03-11T01:53:05.889Z,11.03
2023-03-11T01:55:33.224Z,10.93
2023-03-11T01:58:05.435Z,11.03
2023-03-11T02:00:32.143Z,15.60
2023-03-11T02:05:41.562Z,13.43
2023-03-11T02:08:08.772Z,9.53
2023-03-11T02:10:39.061Z,10.90
2023-03-11T02:13:06.384Z,14.03
2023-03-11T02:15:33.582Z,12.90
2023-03-11T02:18:05.143Z,11.47
2023-03-11T02:20:50.712Z,9.90
2023-03-11T02:23:21.278Z,11.23
2023-03-11T02:26:09.882Z,10.93
2023-03-11T02:28:38.842Z,10.40
2023-03-11T02:31:06.955Z,10.57
2023-03-11T02:33:36.762Z,10.27
2023-03-11T02:36:04.682Z,11.70
2023-03-11T02:38:31.530Z,13.07
2023-03-11T02:41:02.725Z,9.53
2023-03-11T02:43:45.136Z,14.77
2023-03-11T02:46:12.735Z,11.43
2023-03-11T02:48:39.982Z,10.40
2023-03-11T02:51:09.923Z,11.03
2023-03-11T02:53:43.207Z,10.37
2023-03-11T02:56:10.046Z,15.10
2023-03-11T02:58:36.909Z,9.53
2023-03-11T03:01:06.105Z,11.43
2023-03-11T03:03:33.087Z,11.17
2023-03-11T03:05:59.811Z,8.77
2023-03-11T03:08:26.647Z,10.73
2023-03-11T03:10:54.707Z,12.47
2023-03-11T03:13:21.549Z,13.03
2023-03-11T03:15:48.530Z,9.83
2023-03-11T03:18:15.840Z,12.50
2023-03-11T03:20:42.692Z,9.53
2023-03-11T03:23:09.700Z,9.03
2023-03-11T03:25:36.662Z,9.97
2023-03-11T03:28:03.914Z,13.13
2023-03-11T03:30:30.620Z,8.47
2023-03-11T03:32:57.506Z,7.37
2023-03-11T03:35:25.145Z,10.30
2023-03-11T03:37:51.892Z,8.47
2023-03-11T03:40:19.019Z,9.57
2023-03-11T03:42:45.728Z,9.83
2023-03-11T03:45:12.768Z,7.93
2023-03-11T03:47:39.682Z,7.17
2023-03-11T03:50:09.618Z,9.83
2023-03-11T03:52:37.843Z,7.77
2023-03-11T03:55:06.378Z,6.37
2023-03-11T03:57:33.549Z,6.70
2023-03-11T04:00:00.474Z,6.70
2023-03-11T04:02:27.605Z,7.40
2023-03-11T04:04:54.495Z,8.23
2023-03-11T04:07:21.237Z,7.47
2023-03-11T04:09:48.196Z,5.93
2023-03-11T04:12:15.510Z,6.93
2023-03-11T04:14:42.458Z,9.03
2023-03-11T04:17:12.213Z,8.77
2023-03-11T04:19:39.718Z,5.83
2023-03-11T04:22:06.779Z,8.90
2023-03-11T04:24:33.576Z,8.00
2023-03-11T04:27:00.380Z,7.23
2023-03-11T04:29:28.187Z,7.67
2023-03-11T04:31:55.081Z,7.43
2023-03-11T04:34:22.383Z,7.90
2023-03-11T04:36:53.643Z,6.97
2023-03-11T04:39:22.601Z,7.53
2023-03-11T04:41:49.478Z,7.13
2023-03-11T04:44:16.549Z,5.53
2023-03-11T04:46:43.397Z,6.10
2023-03-11T04:49:10.438Z,8.17
2023-03-11T04:51:37.496Z,8.23
2023-03-11T04:54:10.140Z,7.90
2023-03-11T04:56:36.961Z,6.27
2023-03-11T04:59:03.794Z,7.20
2023-03-11T05:01:30.672Z,6.47
2023-03-11T05:03:57.469Z,4.97
2023-03-11T05:06:24.249Z,8.53
2023-03-11T05:08:51.060Z,7.80
2023-03-11T05:11:17.901Z,5.90
2023-03-11T05:13:46.932Z,6.93
2023-03-11T05:16:15.185Z,7.00
2023-03-11T05:18:42.091Z,7.43
2023-03-11T05:21:09.514Z,10.10
2023-03-11T05:23:36.490Z,11.80
2023-03-11T05:26:03.345Z,7.97
2023-03-11T05:28:30.167Z,11.00
2023-03-11T05:30:57.012Z,8.77
2023-03-11T05:33:24.042Z,8.97
2023-03-11T05:35:52.053Z,9.57
2023-03-11T05:38:19.072Z,10.57
2023-03-11T05:40:45.906Z,8.67
2023-03-11T05:43:12.749Z,7.47
2023-03-11T05:45:39.980Z,9.47
2023-03-11T05:48:07.090Z,9.40
2023-03-11T05:50:33.914Z,10.80
2023-03-11T05:53:00.718Z,10.90
2023-03-11T05:55:27.585Z,8.83
2023-03-11T05:57:55.709Z,11.40
2023-03-11T06:00:22.927Z,12.00
2023-03-11T06:02:50.002Z,11.17
2023-03-11T06:05:17.208Z,13.97
2023-03-11T06:07:44.312Z,7.97
2023-03-11T06:10:11.968Z,7.97
2023-03-11T06:12:39.262Z,8.50
2023-03-11T06:15:07.503Z,7.10
2023-03-11T06:17:34.490Z,8.50
2023-03-11T06:20:01.289Z,8.27
2023-03-11T06:22:28.131Z,11.03
2023-03-11T06:24:55.042Z,6.50
2023-03-11T06:27:21.840Z,8.53
2023-03-11T06:29:52.732Z,8.27
2023-03-11T06:32:19.614Z,11.47
2023-03-11T06:34:51.004Z,7.87
2023-03-11T06:37:18.288Z,9.23
2023-03-11T06:39:45.294Z,12.97
2023-03-11T06:42:12.504Z,13.90
2023-03-11T06:44:39.479Z,11.70
2023-03-11T06:47:06.517Z,12.10
2023-03-11T06:49:33.808Z,7.60
2023-03-11T06:52:00.737Z,11.43
2023-03-11T06:54:27.569Z,9.90
2023-03-11T06:56:54.405Z,9.30
2023-03-11T06:59:22.936Z,9.60
2023-03-11T07:01:50.231Z,9.93
2023-03-11T07:04:17.366Z,17.13
2023-03-11T07:06:44.245Z,13.10
2023-03-11T07:09:11.071Z,12.13
2023-03-11T07:11:38.266Z,9.37
2023-03-11T07:14:06.198Z,10.07
2023-03-11T07:16:33.093Z,8.60
2023-03-11T07:19:03.241Z,9.43
2023-03-11T07:21:31.805Z,9.00
2023-03-11T07:24:00.762Z,9.17
2023-03-11T07:26:29.001Z,10.37
2023-03-11T07:28:57.383Z,11.90
2023-03-11T07:31:29.714Z,11.53
2023-03-11T07:34:01.466Z,10.53
2023-03-11T07:36:29.493Z,10.07
2023-03-11T07:39:04.338Z,10.40
2023-03-11T07:41:32.972Z,10.97
2023-03-11T07:44:01.369Z,10.87
2023-03-11T07:46:30.029Z,11.00
2023-03-11T07:48:57.562Z,11.63
2023-03-11T07:51:26.949Z,12.93
2023-03-11T07:53:55.689Z,12.80
2023-03-11T07:56:24.581Z,11.87
2023-03-11T07:58:53.253Z,11.17
2023-03-11T08:01:23.375Z,11.50
2023-03-11T08:03:56.905Z,12.63
2023-03-11T08:06:31.253Z,9.67
2023-03-11T08:09:02.409Z,7.80
2023-03-11T08:11:31.147Z,11.03
2023-03-11T08:13:59.109Z,12.90
2023-03-11T08:16:26.858Z,11.00
2023-03-11T08:18:54.508Z,11.77
2023-03-11T08:21:24.971Z,8.00
2023-03-11T08:23:52.382Z,9.60
2023-03-11T08:26:21.988Z,9.63
2023-03-11T08:28:50.361Z,10.07
2023-03-11T08:31:26.012Z,9.13
2023-03-11T08:33:56.771Z,11.60
2023-03-11T08:36:24.054Z,13.40
2023-03-11T08:38:51.201Z,10.50
2023-03-11T08:41:18.932Z,11.10
2023-03-11T08:43:46.052Z,9.10
2023-03-11T08:46:37.481Z,10.07
2023-03-11T08:49:06.058Z,12.20
2023-03-11T08:51:34.817Z,8.07
2023-03-11T08:54:02.609Z,8.47
2023-03-11T08:56:30.341Z,7.87
2023-03-11T08:58:57.284Z,6.93
2023-03-11T09:01:24.365Z,7.03
2023-03-11T09:03:52.009Z,8.27
2023-03-11T09:06:19.179Z,6.33
2023-03-11T09:08:46.941Z,5.70
2023-03-11T09:11:16.618Z,6.73
2023-03-11T09:13:44.080Z,9.33
2023-03-11T09:16:20.561Z,9.90
2023-03-11T09:18:47.501Z,17.03
2023-03-11T09:21:14.331Z,24.90
2023-03-11T09:23:43.976Z,22.90
2023-03-11T09:26:11.047Z,18.67
2023-03-11T09:28:37.778Z,23.33
2023-03-11T09:31:04.760Z,21.47
2023-03-11T09:33:31.551Z,21.87
2023-03-11T09:35:59.140Z,21.40
2023-03-11T09:38:25.912Z,19.47
2023-03-11T09:41:23.146Z,25.13
2023-03-11T09:44:04.503Z,12.43
2023-03-11T09:46:36.989Z,11.67
2023-03-11T09:49:14.729Z,14.93
2023-03-11T09:51:56.221Z,11.43
2023-03-11T09:54:23.281Z,12.43
2023-03-11T09:56:50.750Z,11.33
2023-03-11T09:59:24.044Z,8.23
2023-03-11T10:01:51.694Z,9.10
2023-03-11T10:04:26.980Z,9.00
2023-03-11T10:06:54.556Z,9.00
2023-03-11T10:09:33.987Z,12.27
2023-03-11T10:12:00.872Z,6.70
2023-03-11T10:14:47.629Z,6.23
2023-03-11T10:17:42.722Z,7.80
2023-03-11T10:20:28.384Z,10.43
2023-03-11T10:23:16.858Z,5.47
2023-03-11T10:26:08.034Z,7.17
2023-03-11T10:28:49.981Z,5.60
2023-03-11T10:31:22.136Z,5.77
2023-03-11T10:34:21.792Z,20.43
2023-03-11T10:37:03.793Z,20.47
2023-03-11T10:39:34.229Z,27.30
2023-03-11T10:42:04.074Z,13.80
2023-03-11T10:44:36.121Z,38.10
2023-03-11T10:47:03.619Z,16.13
2023-03-11T10:49:30.850Z,29.37
2023-03-11T10:51:58.240Z,14.87
2023-03-11T10:54:41.071Z,11.57
2023-03-11T10:57:25.546Z,14.43
2023-03-11T10:59:55.398Z,7.73
2023-03-11T11:02:25.934Z,11.67
2023-03-11T11:05:17.355Z,6.57
2023-03-11T11:08:07.545Z,5.80
2023-03-11T11:10:36.653Z,24.97
2023-03-11T11:13:31.256Z,10.30
2023-03-11T11:16:01.362Z,10.50
2023-03-11T11:18:33.333Z,16.40
2023-03-11T11:21:03.070Z,13.80
2023-03-11T11:23:40.804Z,9.63
2023-03-11T11:26:23.015Z,10.33
2023-03-11T11:29:22.249Z,10.33
2023-03-11T11:31:49.120Z,9.80
2023-03-11T11:34:34.339Z,7.13
2023-03-11T11:37:04.322Z,9.37
2023-03-11T11:39:40.296Z,18.70
2023-03-11T11:42:11.836Z,18.90
2023-03-11T11:44:38.733Z,11.73
2023-03-11T11:47:18.224Z,11.83
2023-03-11T11:49:53.093Z,9.70
2023-03-11T11:52:35.029Z,8.00
2023-03-11T11:55:30.152Z,10.23
2023-03-11T11:57:58.131Z,9.73
2023-03-11T12:00:48.741Z,9.00
2023-03-11T12:03:23.875Z,8.30
2023-03-11T12:06:06.160Z,7.47
2023-03-11T12:08:47.398Z,7.50
2023-03-11T12:11:54.128Z,7.37
2023-03-11T12:14:31.322Z,9.67
2023-03-11T12:17:04.246Z,7.00
2023-03-11T12:19:34.507Z,8.73
2023-03-11T12:22:13.082Z,7.13
2023-03-11T12:24:42.857Z,7.33
2023-03-11T12:27:29.977Z,7.50
2023-03-11T12:30:03.220Z,5.90
2023-03-11T12:32:52.086Z,7.13
2023-03-11T12:35:31.858Z,6.83
2023-03-11T12:38:01.589Z,8.77
2023-03-11T12:40:49.161Z,8.57
2023-03-11T12:43:30.126Z,9.80
2023-03-11T12:46:02.017Z,6.10
2023-03-11T12:48:46.122Z,17.43
2023-03-11T12:51:27.591Z,10.23
2023-03-11T12:53:55.641Z,16.97
2023-03-11T12:56:35.997Z,14.00
2023-03-11T12:59:16.395Z,9.77
2023-03-11T13:02:09.794Z,17.57
2023-03-11T13:04:40.438Z,19.90
2023-03-11T13:07:35.414Z,15.47
2023-03-11T13:10:08.263Z,12.83
2023-03-11T13:12:51.256Z,19.40
2023-03-11T13:15:21.073Z,10.17
2023-03-11T13:17:58.415Z,25.47
2023-03-11T13:20:43.293Z,15.27
2023-03-11T13:23:31.359Z,12.47
2023-03-11T13:26:06.042Z,12.73
2023-03-11T13:28:57.279Z,10.60
2023-03-11T13:32:00.923Z,14.87
2023-03-11T13:34:54.957Z,9.60
2023-03-11T13:37:43.423Z,11.17
2023-03-11T13:40:14.070Z,15.07
2023-03-11T13:42:49.095Z,12.83
2023-03-11T13:45:36.127Z,10.83
2023-03-11T13:48:42.031Z,11.57
2023-03-11T13:51:29.314Z,8.87
2023-03-11T13:54:29.404Z,8.40
2023-03-11T13:57:01.343Z,7.67
2023-03-11T13:59:31.061Z,10.93
2023-03-11T14:02:19.555Z,8.93
2023-03-11T14:04:56.877Z,9.63
2023-03-11T14:07:31.941Z,6.53
2023-03-11T14:10:29.161Z,6.63
2023-03-11T14:13:15.691Z,7.80
2023-03-11T14:16:23.129Z,6.33
2023-03-11T14:19:16.803Z,7.70
2023-03-11T14:21:45.216Z,8.50
2023-03-11T14:24:23.025Z,7.47
2023-03-11T14:26:55.181Z,8.47
2023-03-11T14:29:35.302Z,8.90
2023-03-11T14:32:36.160Z,8.33
2023-03-11T14:35:19.704Z,10.00
2023-03-11T14:37:46.611Z,11.57
2023-03-11T14:40:27.608Z,7.03
2023-03-11T14:42:57.122Z,11.43
2023-03-11T14:45:28.825Z,5.33
2023-03-11T14:48:19.770Z,7.50
2023-03-11T14:50:49.632Z,7.73
2023-03-11T14:53:39.660Z,11.27
2023-03-11T14:56:15.744Z,15.93
2023-03-11T14:59:07.301Z,10.90
2023-03-11T15:01:43.523Z,16.47
2023-03-11T15:04:29.143Z,6.13
2023-03-11T15:06:56.731Z,5.40
2023-03-11T15:09:24.967Z,8.43
2023-03-11T15:12:00.143Z,7.57
2023-03-11T15:14:31.637Z,13.37
2023-03-11T15:17:34.894Z,12.13
2023-03-11T15:20:36.848Z,18.53
2023-03-11T15:23:06.311Z,10.57
2023-03-11T15:25:37.326Z,13.63
2023-03-11T15:28:29.711Z,9.17
2023-03-11T15:31:22.098Z,5.77
2023-03-11T15:33:51.579Z,6.57
2023-03-11T15:36:34.185Z,6.20
2023-03-11T15:39:30.049Z,5.33
2023-03-11T15:42:00.237Z,5.53
2023-03-11T15:44:36.309Z,6.57
2023-03-11T15:47:04.221Z,8.23
2023-03-11T15:49:31.253Z,7.50
2023-03-11T15:51:59.689Z,4.67
2023-03-11T15:54:27.111Z,8.73
2023-03-11T15:56:55.229Z,6.03
2023-03-11T15:59:22.761Z,9.27
2023-03-11T16:01:50.313Z,8.30
2023-03-11T16:04:19.603Z,5.33
2023-03-11T16:06:53.927Z,5.00
2023-03-11T16:09:31.641Z,4.33
2023-03-11T16:11:58.808Z,5.30
2023-03-11T16:14:25.879Z,22.17
2023-03-11T16:16:52.612Z,14.00
2023-03-11T16:19:19.527Z,10.13
2023-03-11T16:21:50.215Z,14.77
2023-03-11T16:24:20.685Z,10.57
2023-03-11T16:26:48.005Z,7.37
2023-03-11T16:29:19.315Z,6.00
2023-03-11T16:31:47.172Z,5.70
2023-03-11T16:34:14.089Z,4.53
2023-03-11T16:36:41.078Z,5.73
2023-03-11T16:39:08.140Z,5.63
2023-03-11T16:41:43.581Z,4.67
2023-03-11T16:44:10.598Z,5.10
2023-03-11T16:46:37.596Z,11.77
2023-03-11T16:49:05.474Z,5.57
2023-03-11T16:51:33.073Z,6.63
2023-03-11T16:54:00.211Z,9.50
2023-03-11T16:56:27.058Z,8.53
2023-03-11T16:58:54.026Z,6.50
2023-03-11T17:01:21.770Z,13.53
2023-03-11T17:03:52.937Z,7.37
2023-03-11T17:06:21.099Z,9.93
2023-03-11T17:08:49.526Z,13.87
2023-03-11T17:11:19.183Z,16.70
2023-03-11T17:13:46.673Z,8.07
2023-03-11T17:16:13.972Z,8.80
2023-03-11T17:18:41.153Z,7.73
2023-03-11T17:21:14.469Z,7.93
2023-03-11T17:23:42.017Z,8.33
2023-03-11T17:26:14.571Z,7.27
2023-03-11T17:28:42.560Z,6.00
2023-03-11T17:31:15.702Z,7.60
2023-03-11T17:33:42.925Z,12.17
2023-03-11T17:36:13.848Z,6.77
2023-03-11T17:38:40.930Z,9.27
2023-03-11T17:41:12.728Z,8.27
2023-03-11T17:43:40.159Z,4.53
2023-03-11T17:46:14.351Z,12.00
2023-03-11T17:48:42.621Z,5.40
2023-03-11T17:51:15.000Z,5.13
2023-03-11T17:53:45.804Z,13.43
2023-03-11T17:56:15.289Z,7.23
2023-03-11T17:58:42.251Z,5.47
2023-03-11T18:01:13.117Z,6.93
2023-03-11T18:03:39.950Z,5.07
2023-03-11T18:06:07.459Z,5.77
2023-03-11T18:08:35.632Z,3.47
2023-03-11T18:11:11.635Z,3.43
2023-03-11T18:13:40.443Z,5.17
2023-03-11T18:16:13.712Z,3.37
2023-03-11T18:18:41.428Z,4.17
2023-03-11T18:21:17.387Z,4.27
2023-03-11T18:23:44.635Z,4.67
2023-03-11T18:26:14.358Z,3.83
2023-03-11T18:28:41.812Z,6.17
2023-03-11T18:31:10.425Z,5.57
2023-03-11T18:33:37.694Z,8.50
2023-03-11T18:36:16.349Z,4.47
2023-03-11T18:38:44.060Z,6.30
2023-03-11T18:41:11.573Z,7.30
2023-03-11T18:43:38.624Z,6.60
2023-03-11T18:46:13.839Z,10.50
2023-03-11T18:48:42.164Z,3.87
2023-03-11T18:51:09.457Z,5.67
2023-03-11T18:53:36.983Z,3.70
2023-03-11T18:56:06.691Z,3.33
2023-03-11T18:58:34.228Z,7.50
2023-03-11T19:01:06.913Z,3.87
2023-03-11T19:03:34.263Z,6.47
2023-03-11T19:06:01.723Z,4.47
2023-03-11T19:08:28.995Z,5.00
2023-03-11T19:10:55.996Z,5.40
2023-03-11T19:13:23.040Z,4.20
2023-03-11T19:15:50.134Z,14.93
2023-03-11T19:18:16.937Z,8.10
2023-03-11T19:20:43.744Z,5.73
2023-03-11T19:23:11.414Z,4.97
2023-03-11T19:25:38.250Z,3.13
2023-03-11T19:28:05.168Z,6.90
2023-03-11T19:30:32.654Z,7.50
2023-03-11T19:32:59.709Z,6.33
2023-03-11T19:35:26.511Z,6.63
2023-03-11T19:37:57.050Z,9.40
2023-03-11T19:40:24.228Z,9.30
2023-03-11T19:42:51.258Z,5.93
2023-03-11T19:45:18.171Z,7.73
2023-03-11T19:47:46.541Z,7.03
2023-03-11T19:50:13.341Z,6.77
2023-03-11T19:52:40.274Z,6.27
2023-03-11T19:55:07.650Z,8.37
2023-03-11T19:57:34.715Z,4.83
2023-03-11T20:00:01.840Z,7.30
2023-03-11T20:02:28.852Z,6.77
2023-03-11T20:04:55.676Z,13.50
2023-03-11T20:07:24.706Z,6.10
2023-03-11T20:09:51.543Z,7.10
2023-03-11T20:12:18.331Z,10.13
2023-03-11T20:14:46.379Z,7.03
2023-03-11T20:17:14.671Z,5.13
2023-03-11T20:19:41.730Z,7.17
2023-03-11T20:22:10.099Z,7.83
2023-03-11T20:24:37.178Z,7.43
2023-03-11T20:27:04.158Z,4.10
2023-03-11T20:29:31.146Z,8.73
2023-03-11T20:31:59.075Z,6.20
2023-03-11T20:34:26.204Z,6.37
2023-03-11T20:36:53.373Z,6.07
2023-03-11T20:39:20.448Z,7.63
2023-03-11T20:41:47.291Z,6.43
2023-03-11T20:44:14.836Z,11.13
2023-03-11T20:46:42.445Z,9.60
2023-03-11T20:49:09.792Z,7.93
2023-03-11T20:51:39.042Z,5.10
2023-03-11T20:54:07.398Z,7.77
2023-03-11T20:56:35.115Z,9.27
2023-03-11T20:59:01.863Z,7.17
2023-03-11T21:01:30.633Z,6.10
2023-03-11T21:04:00.980Z,7.13
2023-03-11T21:06:34.071Z,9.00
2023-03-11T21:09:04.850Z,6.73
2023-03-11T21:11:34.010Z,9.17
2023-03-11T21:14:00.929Z,7.27
2023-03-11T21:16:28.228Z,9.80
2023-03-11T21:18:55.968Z,10.33
2023-03-11T21:21:23.641Z,9.30
2023-03-11T21:23:50.865Z,9.40
2023-03-11T21:26:18.693Z,6.23
2023-03-11T21:28:47.212Z,8.37
2023-03-11T21:31:23.614Z,10.23
2023-03-11T21:33:55.131Z,11.13
2023-03-11T21:36:24.252Z,9.17
2023-03-11T21:38:51.756Z,9.80
2023-03-11T21:41:23.759Z,6.40
2023-03-11T21:43:52.706Z,7.03
2023-03-11T21:46:22.994Z,9.40
2023-03-11T21:48:50.339Z,11.37
2023-03-11T21:51:19.284Z,7.20
2023-03-11T21:53:46.676Z,8.33
2023-03-11T21:56:14.034Z,6.40
2023-03-11T21:58:42.517Z,7.47
2023-03-11T22:01:10.648Z,11.53
2023-03-11T22:03:38.031Z,7.67
2023-03-11T22:06:10.676Z,12.20
2023-03-11T22:08:38.199Z,7.43
2023-03-11T22:11:12.744Z,6.83
2023-03-11T22:13:39.993Z,5.30
2023-03-11T22:16:07.908Z,7.13
2023-03-11T22:18:35.151Z,9.53
2023-03-11T22:21:02.468Z,11.90
2023-03-11T22:23:29.425Z,9.63
2023-03-11T22:25:56.289Z,10.30
2023-03-11T22:28:24.020Z,8.67
2023-03-11T22:30:50.815Z,5.83
2023-03-11T22:33:18.873Z,9.20
2023-03-11T22:35:56.968Z,8.10
2023-03-11T22:38:24.196Z,11.07
2023-03-11T22:40:51.310Z,9.77
2023-03-11T22:43:18.188Z,9.50
2023-03-11T22:45:45.699Z,6.47
2023-03-11T22:48:12.574Z,11.93
2023-03-11T22:50:47.546Z,6.10
2023-03-11T22:53:15.535Z,6.00
2023-03-11T22:55:44.024Z,8.33
2023-03-11T22:58:11.541Z,6.00
2023-03-11T23:00:38.587Z,8.73
2023-03-11T23:03:06.306Z,10.07
2023-03-11T23:05:40.698Z,5.73
2023-03-11T23:08:09.160Z,9.53
2023-03-11T23:10:36.493Z,11.07
2023-03-11T23:13:03.480Z,8.63
2023-03-11T23:15:31.418Z,9.87
2023-03-11T23:17:58.269Z,7.40
2023-03-11T23:20:25.075Z,6.90
2023-03-11T23:22:51.862Z,11.40
2023-03-11T23:25:19.515Z,13.40
2023-03-11T23:27:46.997Z,9.93
2023-03-11T23:30:16.349Z,12.80
2023-03-11T23:32:43.939Z,15.77
2023-03-11T23:35:11.925Z,13.27
2023-03-11T23:37:39.421Z,10.90
2023-03-11T23:40:09.526Z,8.63
2023-03-11T23:42:36.539Z,12.90
2023-03-11T23:45:04.952Z,11.40
2023-03-11T23:47:32.082Z,14.73
2023-03-11T23:49:58.826Z,12.73
2023-03-11T23:52:26.235Z,11.90
2023-03-11T23:54:53.604Z,11.33
2023-03-11T23:57:20.646Z,15.77
2023-03-11T23:59:47.862Z,13.27
